Time;durP1;ratioP1;P1;durP2;ratioP2;P2;SDS_P1;SDS_P2;PMS_P1;PMS_P2;Temp;Humidity;BMP_temperature;BMP_pressure;BME280_temperature;BME280_humidity;BME280_pressure;Samples;Min_cycle;Max_cycle;Signal;HPM_P1;HPM_P2
2022/02/10 00:05:43;;;;;;;;;;;;;;;21.27;48.64;101641.47;5087487;28;5115;-58
2022/02/10 00:08:22;;;;;;;;;;;;;;;21.27;48.81;101638.59;5087660;28;4183;-57
2022/02/10 00:14:15;;;;;;;;;;;;;;;21.25;48.84;101632.72;5075775;28;4208;-58
2022/02/10 00:19:32;;;;;;;;;;;;;;;21.24;48.89;101634.13;5067908;28;4062;-58
2022/02/10 00:22:09;;;;;;;;;;;;;;;21.23;48.74;101641.25;5075045;28;5359;-58
2022/02/10 00:25:04;;;;;;;;;;;;;;;21.23;48.88;101638.38;5086591;28;4062;-58
2022/02/10 00:35:46;;;;;;;;;;;;;;;21.22;48.78;101634.00;5086332;28;5319;-58
2022/02/10 00:38:14;;;;;;;;;;;;;;;21.22;48.50;101634.00;5086536;28;6389;-58
2022/02/10 00:40:40;;;;;;;;;;;;;;;21.22;48.56;101642.66;5087035;28;4219;-58
2022/02/10 00:43:06;;;;;;;;;;;;;;;21.21;48.47;101632.53;5085267;28;4203;-57
2022/02/10 00:45:34;;;;;;;;;;;;;;;21.21;48.58;101635.41;5088126;28;5207;-57
2022/02/10 00:48:07;;;;;;;;;;;;;;;21.20;48.73;101636.78;5085832;28;4293;-58
2022/02/10 00:50:36;;;;;;;;;;;;;;;21.18;48.61;101636.66;5087102;28;4118;-58
2022/02/10 00:53:23;;;;;;;;;;;;;;;21.19;48.46;101623.75;5086360;28;5226;-58
2022/02/10 00:55:50;;;;;;;;;;;;;;;21.20;48.37;101628.13;5082883;28;5025;-58
2022/02/10 00:58:29;;;;;;;;;;;;;;;21.22;48.88;101634.00;5086829;28;4350;-58
2022/02/10 01:12:14;;;;;;;;;;;;;;;21.23;49.06;101638.38;5083652;28;4221;-57
2022/02/10 01:24:29;;;;;;;;;;;;;;;21.23;49.08;101626.84;5086228;28;4148;-58
2022/02/10 01:31:05;;;;;;;;;;;;;;;21.22;48.98;101613.84;5086552;28;4224;-58
2022/02/10 01:33:33;;;;;;;;;;;;;;;21.22;49.31;101610.22;5085715;28;4239;-57
2022/02/10 01:35:59;;;;;;;;;;;;;;;21.22;49.20;101605.19;5083056;28;4108;-57
2022/02/10 01:38:26;;;;;;;;;;;;;;;21.23;49.43;101611.69;5086986;28;5218;-57
2022/02/10 01:41:35;;;;;;;;;;;;;;;21.22;49.32;101604.47;5086199;28;4114;-57
2022/02/10 02:03:20;;;;;;;;;;;;;;;21.19;49.04;101589.19;5085088;28;4285;-58
2022/02/10 02:05:51;;;;;;;;;;;;;;;21.18;49.00;101593.44;5087135;28;5511;-57
2022/02/10 02:08:26;;;;;;;;;;;;;;;21.19;48.81;101582.66;5084421;28;5464;-58
2022/02/10 02:10:52;;;;;;;;;;;;;;;21.17;49.16;101583.31;5086749;28;4287;-57
2022/02/10 02:13:19;;;;;;;;;;;;;;;21.17;49.05;101574.69;5084143;28;4163;-58
2022/02/10 02:15:45;;;;;;;;;;;;;;;21.17;49.14;101573.94;5084502;28;4206;-58
2022/02/10 02:18:11;;;;;;;;;;;;;;;21.17;48.90;101562.44;5082645;28;4048;-58
2022/02/10 02:20:38;;;;;;;;;;;;;;;21.16;48.83;101567.41;5085241;28;4227;-57
2022/02/10 02:23:04;;;;;;;;;;;;;;;21.15;48.95;101568.81;5083030;28;4461;-58
2022/02/10 02:25:30;;;;;;;;;;;;;;;21.15;48.90;101573.84;5083569;28;4199;-58
2022/02/10 02:27:58;;;;;;;;;;;;;;;21.15;48.86;101570.94;5080839;28;4131;-58
2022/02/10 02:30:32;;;;;;;;;;;;;;;21.14;48.93;101573.06;5082239;28;4249;-58
2022/02/10 02:33:27;;;;;;;;;;;;;;;21.16;48.72;101561.66;5080150;28;4063;-58
2022/02/10 02:36:15;;;;;;;;;;;;;;;21.14;48.91;101564.41;5087869;28;4138;-58
2022/02/10 02:39:12;;;;;;;;;;;;;;;21.13;48.84;101562.94;5076585;28;4130;-58
2022/02/10 03:08:53;;;;;;;;;;;;;;;21.08;48.32;101529.56;5084483;28;4250;-58
2022/02/10 03:11:19;;;;;;;;;;;;;;;21.09;48.43;101520.25;5083935;28;4195;-58
2022/02/10 03:13:51;;;;;;;;;;;;;;;21.08;48.30;101515.16;5083054;28;4092;-58
2022/02/10 03:16:44;;;;;;;;;;;;;;;21.07;48.51;101510.75;5084954;28;5202;-58
2022/02/10 03:19:39;;;;;;;;;;;;;;;21.05;48.51;101505.66;5085689;28;4132;-57
2022/02/10 04:09:11;;;;;;;;;;;;;;;21.12;49.04;101440.50;5087978;28;4125;-57
2022/02/10 04:14:33;;;;;;;;;;;;;;;21.15;49.01;101427.69;5086478;28;4123;-57
2022/02/10 04:20:31;;;;;;;;;;;;;;;21.18;48.96;101432.16;5043987;28;4635;-57
2022/02/10 04:23:19;;;;;;;;;;;;;;;21.17;48.88;101429.94;5090540;28;4176;-58
2022/02/10 04:26:18;;;;;;;;;;;;;;;21.18;49.03;101419.91;5082247;28;4217;-58
2022/02/10 04:29:02;;;;;;;;;;;;;;;21.18;49.09;101422.78;5087805;28;4085;-58
2022/02/10 04:40:41;;;;;;;;;;;;;;;21.15;49.20;101416.16;5087409;28;4186;-57
2022/02/10 04:43:03;;;;;;;;;;;;;;;21.15;49.10;101416.16;5085674;28;4313;-58
2022/02/10 04:53:14;;;;;;;;;;;;;;;21.15;49.00;101409.69;5087583;28;4083;-57
2022/02/10 04:54:36;;;;;;;;;;;;;;;21.26;48.82;101397.28;5087312;28;4052;-57
2022/02/10 04:59:29;;;;;;;;;;;;;;;21.24;48.60;101389.28;5087485;28;4161;-58
2022/02/10 05:05:08;;;;;;;;;;;;;;;21.19;48.90;101381.06;5087641;28;4546;-58
2022/02/10 05:08:13;;;;;;;;;;;;;;;21.20;48.96;101380.44;5086959;28;4304;-58
2022/02/10 05:24:23;;;;;;;;;;;;;;;21.20;48.83;101377.53;5087258;28;4087;-58
2022/02/10 05:32:39;;;;;;;;;;;;;;;21.24;48.96;101362.63;5081533;28;4142;-57
2022/02/10 05:35:20;;;;;;;;;;;;;;;21.23;48.71;101361.84;5086964;28;4265;-58
2022/02/10 05:37:52;;;;;;;;;;;;;;;21.25;48.75;101361.97;5083803;28;4249;-58
2022/02/10 05:40:45;;;;;;;;;;;;;;;21.25;48.60;101364.84;5086398;28;4193;-58
2022/02/10 05:46:07;;;;;;;;;;;;;;;21.22;48.94;101362.50;5087137;28;4224;-57
2022/02/10 05:49:06;;;;;;;;;;;;;;;21.22;48.87;101356.75;5086203;28;4145;-57
2022/02/10 05:52:02;;;;;;;;;;;;;;;21.28;48.86;101354.16;5087455;28;4334;-57
2022/02/10 05:57:24;;;;;;;;;;;;;;;21.31;48.54;101342.09;5086719;28;4187;-58
2022/02/10 06:00:25;;;;;;;;;;;;;;;21.29;48.61;101336.25;5086167;28;5187;-58
2022/02/10 06:02:59;;;;;;;;;;;;;;;21.26;48.54;101342.56;5065118;28;4196;-58
2022/02/10 06:39:48;;;;;;;;;;;;;;;21.21;48.82;101317.81;5082194;28;4190;-58
2022/02/10 06:47:02;;;;;;;;;;;;;;;21.21;48.93;101315.69;5082824;28;4289;-58
2022/02/10 06:47:47;;;;;;;;;;;;;;;21.31;49.10;101307.53;5081379;28;4158;-58
2022/02/10 06:50:12;;;;;;;;;;;;;;;21.38;48.87;101305.72;5073260;28;5156;-57
2022/02/10 06:52:58;;;;;;;;;;;;;;;21.42;49.24;101299.44;5080167;28;4150;-58
2022/02/10 06:58:18;;;;;;;;;;;;;;;21.39;49.91;101294.94;5067010;28;4100;-61
2022/02/10 07:03:51;;;;;;;;;;;;;;;21.31;49.37;101278.72;5057125;28;4175;-61
2022/02/10 07:11:30;;;;;;;;;;;;;;;21.21;47.57;101281.13;5081353;28;5298;-62
2022/02/10 07:14:18;;;;;;;;;;;;;;;21.28;48.29;101268.50;5079161;28;4223;-62
2022/02/10 07:46:59;;;;;;;;;;;;;;;20.97;45.33;101251.13;5077536;28;4084;-70
2022/02/10 07:54:20;;;;;;;;;;;;;;;21.53;47.55;101247.41;5074565;28;4105;-62
2022/02/10 08:18:00;;;;;;;;;;;;;;;21.61;47.93;101244.16;5063727;28;3977;-58
2022/02/10 08:28:33;;;;;;;;;;;;;;;22.08;48.14;101217.50;5073439;28;4370;-55
2022/02/10 08:53:23;;;;;;;;;;;;;;;21.63;49.80;101203.91;5080460;28;4028;-59
2022/02/10 08:55:30;;;;;;;;;;;;;;;21.62;49.86;101195.91;5067936;28;4411;-61
2022/02/10 08:58:27;;;;;;;;;;;;;;;21.63;49.59;101197.41;5080615;28;4030;-63
2022/02/10 09:06:16;;;;;;;;;;;;;;;21.61;49.92;101189.41;5080522;28;5467;-64
2022/02/10 09:09:29;;;;;;;;;;;;;;;21.61;50.41;101183.66;5080818;28;4133;-59
2022/02/10 09:14:58;;;;;;;;;;;;;;;21.61;50.39;101182.91;5080031;28;5231;-56
2022/02/10 09:20:13;;;;;;;;;;;;;;;21.92;49.55;101170.63;5080671;28;5668;-59
2022/02/10 09:23:57;;;;;;;;;;;;;;;22.03;49.07;101169.66;5085719;28;4333;-60
2022/02/10 09:48:30;;;;;;;;;;;;;;;22.33;48.74;101152.25;5084042;28;4122;-56
2022/02/10 09:56:22;;;;;;;;;;;;;;;22.44;48.22;101151.28;5079431;28;4189;-52
2022/02/10 09:59:05;;;;;;;;;;;;;;;22.49;48.17;101143.53;5077923;28;3984;-54
2022/02/10 10:01:45;;;;;;;;;;;;;;;22.18;47.94;101151.59;5080268;28;4217;-51
2022/02/10 10:04:17;;;;;;;;;;;;;;;22.23;48.54;101141.00;5075678;28;4887;-58
2022/02/10 10:06:54;;;;;;;;;;;;;;;22.26;48.82;101138.94;5078776;28;4111;-55
2022/02/10 10:14:52;;;;;;;;;;;;;;;22.37;48.49;101140.88;5082184;28;4160;-54
2022/02/10 10:20:04;;;;;;;;;;;;;;;22.45;48.60;101137.59;5081406;28;4223;-56
2022/02/10 10:48:50;;;;;;;;;;;;;;;22.53;48.48;101115.59;5079312;28;4054;-62
2022/02/10 10:50:56;;;;;;;;;;;;;;;22.56;48.45;101120.06;5081063;28;4135;-63
2022/02/10 10:53:34;;;;;;;;;;;;;;;22.56;48.38;101117.16;5079009;28;4034;-62
2022/02/10 10:58:38;;;;;;;;;;;;;;;22.64;48.04;101101.59;5064962;28;4031;-64
2022/02/10 11:03:38;;;;;;;;;;;;;;;22.70;47.39;101096.81;5076937;28;3959;-57
2022/02/10 11:06:04;;;;;;;;;;;;;;;22.70;47.48;101098.94;5081877;28;4114;-57
2022/02/10 11:38:06;;;;;;;;;;;;;;;22.80;47.38;101079.88;5076859;28;4505;-61
2022/02/10 11:40:40;;;;;;;;;;;;;;;22.83;47.17;101069.16;5079453;28;4015;-61
2022/02/10 11:43:09;;;;;;;;;;;;;;;22.82;47.05;101076.34;5085290;28;4835;-61
2022/02/10 11:59:49;;;;;;;;;;;;;;;22.77;47.55;101071.81;5048943;28;4152;-60
2022/02/10 12:01:00;;;;;;;;;;;;;;;22.87;47.53;101063.53;5070865;28;5102;-65
2022/02/10 12:33:10;;;;;;;;;;;;;;;22.74;47.94;101047.88;5081800;28;4162;-55
2022/02/10 12:42:12;;;;;;;;;;;;;;;22.76;47.67;101055.88;5080146;28;4179;-58
2022/02/10 13:31:58;;;;;;;;;;;;;;;22.61;48.91;101062.47;5079659;28;4137;-69
2022/02/10 13:48:59;;;;;;;;;;;;;;;22.84;48.39;101131.28;5084350;28;3950;-68
2022/02/10 14:11:13;;;;;;;;;;;;;;;22.90;48.51;101153.88;5078253;28;4163;-67
2022/02/10 14:13:37;;;;;;;;;;;;;;;22.91;48.48;101158.25;5078268;28;4388;-69
2022/02/10 14:16:27;;;;;;;;;;;;;;;22.92;48.30;101157.56;5081409;28;4157;-71
2022/02/10 14:19:01;;;;;;;;;;;;;;;23.00;48.20;101171.66;5079066;28;4664;-70
2022/02/10 14:21:33;;;;;;;;;;;;;;;22.71;48.01;101163.94;5074350;28;4376;-74
2022/02/10 14:26:33;;;;;;;;;;;;;;;22.87;48.32;101160.97;5080023;28;4483;-64
2022/02/10 14:28:59;;;;;;;;;;;;;;;22.93;48.27;101173.53;5079657;28;4147;-67
2022/02/10 14:31:26;;;;;;;;;;;;;;;22.90;48.02;101165.41;5077804;28;4124;-72
2022/02/10 14:33:53;;;;;;;;;;;;;;;22.93;48.06;101167.75;5081045;28;4169;-75
2022/02/10 14:36:34;;;;;;;;;;;;;;;22.94;48.12;101163.44;5081142;28;4019;-81
2022/02/10 14:39:22;;;;;;;;;;;;;;;22.82;48.27;101165.09;5074672;28;4212;-72
2022/02/10 14:42:27;;;;;;;;;;;;;;;22.81;48.45;101167.22;5081406;28;4203;-66
2022/02/10 15:16:05;;;;;;;;;;;;;;;23.06;48.03;101211.56;5064647;28;4528;-69
2022/02/10 15:18:04;;;;;;;;;;;;;;;23.10;48.26;101203.09;5072450;28;4160;-69
2022/02/10 15:29:02;;;;;;;;;;;;;;;23.12;47.83;101206.78;5060705;28;5327;-69
2022/02/10 15:30:04;;;;;;;;;;;;;;;22.80;47.59;101209.06;5065978;28;4164;-69
2022/02/10 15:48:50;;;;;;;;;;;;;;;23.23;47.63;101212.97;5078748;28;3927;-76
2022/02/10 15:51:23;;;;;;;;;;;;;;;23.27;47.59;101216.03;5079610;28;3929;-78
2022/02/10 15:56:57;;;;;;;;;;;;;;;23.25;47.97;101219.59;5075914;28;4124;-69
2022/02/10 16:14:15;;;;;;;;;;;;;;;23.39;48.01;101246.16;5080233;28;5275;-70
2022/02/10 16:18:47;;;;;;;;;;;;;;;23.41;47.75;101254.19;5079460;28;4013;-70
2022/02/10 16:21:14;;;;;;;;;;;;;;;23.38;47.97;101253.34;5078134;28;4875;-70
2022/02/10 16:23:41;;;;;;;;;;;;;;;23.37;47.96;101260.53;5080308;28;4235;-66
2022/02/10 16:26:12;;;;;;;;;;;;;;;23.35;48.13;101254.66;5082003;28;4138;-73
2022/02/10 16:28:40;;;;;;;;;;;;;;;23.40;47.98;101253.41;5083197;28;4137;-71
2022/02/10 16:31:08;;;;;;;;;;;;;;;23.44;48.29;101234.78;5085427;28;4030;-74
2022/02/10 16:33:41;;;;;;;;;;;;;;;23.42;47.85;101239.06;5084780;28;5388;-71
2022/02/10 16:36:16;;;;;;;;;;;;;;;23.45;47.90;101242.75;5082866;28;4173;-73
2022/02/10 16:38:47;;;;;;;;;;;;;;;23.49;47.96;101247.97;5079575;28;4053;-73
2022/02/10 16:41:19;;;;;;;;;;;;;;;23.49;47.85;101248.72;5084212;28;4247;-74
2022/02/10 16:43:50;;;;;;;;;;;;;;;23.51;47.70;101250.94;5084342;28;5315;-74
2022/02/10 16:46:20;;;;;;;;;;;;;;;23.41;47.70;101254.91;5082648;28;4190;-71
2022/02/10 16:48:51;;;;;;;;;;;;;;;23.41;48.03;101254.91;5080696;28;4193;-71
2022/02/10 16:51:25;;;;;;;;;;;;;;;23.36;48.32;101252.50;5077587;28;4134;-65
2022/02/10 16:54:06;;;;;;;;;;;;;;;23.39;47.85;101251.22;5084233;28;4204;-73
2022/02/10 16:56:56;;;;;;;;;;;;;;;23.40;48.25;101259.19;5077165;28;5218;-69
2022/02/10 17:02:24;;;;;;;;;;;;;;;23.67;48.19;101271.81;5084882;28;4098;-71
2022/02/10 17:27:02;;;;;;;;;;;;;;;23.84;47.34;101279.00;5079867;28;4101;-69
2022/02/10 17:30:00;;;;;;;;;;;;;;;23.82;47.60;101290.47;5080262;28;4310;-71
2022/02/10 17:44:04;;;;;;;;;;;;;;;23.93;47.46;101300.31;5086451;28;4044;-73
2022/02/10 17:51:58;;;;;;;;;;;;;;;23.93;47.47;101314.75;5083103;28;4214;-70
2022/02/10 17:54:25;;;;;;;;;;;;;;;23.91;47.29;101318.31;5081163;28;4440;-76
2022/02/10 17:56:51;;;;;;;;;;;;;;;23.95;47.31;101312.69;5083167;28;3949;-70
2022/02/10 17:59:19;;;;;;;;;;;;;;;23.93;47.27;101323.44;5079558;28;4192;-68
2022/02/10 18:01:47;;;;;;;;;;;;;;;23.89;47.17;101317.50;5085318;28;4559;-74
2022/02/10 18:04:14;;;;;;;;;;;;;;;23.93;47.35;101320.53;5085284;28;4065;-72
2022/02/10 18:06:45;;;;;;;;;;;;;;;23.96;47.25;101316.31;5083217;28;4164;-71
2022/02/10 18:14:47;;;;;;;;;;;;;;;23.91;47.29;101308.91;5080646;28;4036;-74
2022/02/10 18:17:44;;;;;;;;;;;;;;;23.85;47.56;101318.09;5074584;28;4578;-65
2022/02/10 18:20:21;;;;;;;;;;;;;;;23.79;47.43;101321.47;5076113;28;4569;-64
2022/02/10 18:23:01;;;;;;;;;;;;;;;23.78;47.27;101319.25;5082439;28;4217;-64
2022/02/10 18:25:45;;;;;;;;;;;;;;;23.81;47.90;101321.56;5088732;28;5195;-77
2022/02/10 18:28:39;;;;;;;;;;;;;;;23.76;47.48;101327.84;5065656;28;4151;-67
2022/02/10 18:34:17;;;;;;;;;;;;;;;22.55;47.33;101326.34;5070621;28;4105;-63
2022/02/10 19:05:34;;;;;;;;;;;;;;;22.11;48.50;101320.03;5078405;28;4195;-65
2022/02/10 19:07:03;;;;;;;;;;;;;;;22.05;48.55;101322.63;5072671;28;4095;-65
2022/02/10 19:09:35;;;;;;;;;;;;;;;22.09;48.65;101325.69;5081451;28;4175;-66
2022/02/10 19:12:05;;;;;;;;;;;;;;;22.17;48.21;101333.97;5081348;28;4133;-68
2022/02/10 19:14:34;;;;;;;;;;;;;;;22.16;49.41;101330.34;5081775;28;4188;-71
2022/02/10 19:17:00;;;;;;;;;;;;;;;22.16;49.83;101327.47;5075304;28;4196;-79
2022/02/10 19:19:27;;;;;;;;;;;;;;;22.08;49.90;101324.22;5066667;28;4142;-74
2022/02/10 19:21:53;;;;;;;;;;;;;;;22.11;49.83;101337.31;5083162;28;4209;-70
2022/02/10 19:24:20;;;;;;;;;;;;;;;22.11;49.71;101337.31;5077500;28;4055;-75
2022/02/10 19:26:50;;;;;;;;;;;;;;;22.12;48.03;101344.56;5076508;28;4207;-74
2022/02/10 19:29:17;;;;;;;;;;;;;;;22.09;48.79;101345.88;5081102;28;4256;-74
2022/02/10 19:31:45;;;;;;;;;;;;;;;22.07;49.26;101348.66;5082833;28;4339;-77
2022/02/10 19:34:12;;;;;;;;;;;;;;;22.11;49.59;101345.25;5077085;28;4187;-71
2022/02/10 19:36:58;;;;;;;;;;;;;;;22.10;49.36;101335.81;5082146;28;4182;-73
2022/02/10 19:39:26;;;;;;;;;;;;;;;22.14;48.86;101338.91;5077305;28;4586;-75
2022/02/10 19:41:53;;;;;;;;;;;;;;;22.10;49.62;101321.41;5079493;28;4037;-74
2022/02/10 19:44:20;;;;;;;;;;;;;;;22.11;49.46;101331.56;5079267;28;4337;-69
2022/02/10 19:46:46;;;;;;;;;;;;;;;22.12;49.52;101327.25;5078995;28;4253;-71
2022/02/10 19:49:18;;;;;;;;;;;;;;;21.73;47.05;101325.44;5071620;28;5134;-70
2022/02/10 19:51:46;;;;;;;;;;;;;;;22.08;48.09;101338.63;5075750;28;4136;-72
2022/02/10 19:54:12;;;;;;;;;;;;;;;22.13;48.59;101333.81;5081647;28;4578;-75
2022/02/10 19:56:40;;;;;;;;;;;;;;;22.18;48.22;101332.59;5078749;28;4094;-72
2022/02/10 19:59:07;;;;;;;;;;;;;;;22.20;48.33;101329.81;5079868;28;4241;-72
2022/02/10 20:01:34;;;;;;;;;;;;;;;22.27;48.22;101330.84;5080547;28;4102;-71
2022/02/10 20:04:07;;;;;;;;;;;;;;;22.25;48.72;101322.09;5084212;28;5141;-65
2022/02/10 20:06:34;;;;;;;;;;;;;;;22.16;48.58;101320.94;5079949;28;4185;-67
2022/02/10 20:09:00;;;;;;;;;;;;;;;22.10;49.22;101312.75;5079415;28;4066;-72
2022/02/10 20:11:26;;;;;;;;;;;;;;;22.10;49.17;101312.75;5082440;28;4145;-69
2022/02/10 20:13:53;;;;;;;;;;;;;;;22.12;49.22;101315.72;5085580;28;4043;-74
2022/02/10 20:16:19;;;;;;;;;;;;;;;22.09;49.55;101317.03;5079873;28;4185;-75
2022/02/10 20:18:48;;;;;;;;;;;;;;;22.06;49.68;101321.22;5080230;28;4214;-67
2022/02/10 20:21:15;;;;;;;;;;;;;;;22.27;49.01;101325.81;5076511;28;4059;-67
2022/02/10 20:23:41;;;;;;;;;;;;;;;22.40;48.78;101330.00;5083232;28;4062;-67
2022/02/10 20:26:11;;;;;;;;;;;;;;;22.37;48.66;101329.16;5078836;28;4127;-65
2022/02/10 20:28:38;;;;;;;;;;;;;;;22.41;48.69;101322.84;5080515;28;4149;-65
2022/02/10 20:31:04;;;;;;;;;;;;;;;22.42;48.30;101335.84;5085265;28;5340;-65
2022/02/10 20:33:32;;;;;;;;;;;;;;;22.42;48.38;101327.19;5076630;28;4288;-64
2022/02/10 20:36:00;;;;;;;;;;;;;;;22.43;48.34;101333.75;5083519;28;4146;-64
2022/02/10 20:38:29;;;;;;;;;;;;;;;22.43;48.01;101322.19;5082676;28;4235;-64
2022/02/10 20:41:00;;;;;;;;;;;;;;;22.41;48.41;101325.72;5082147;28;4375;-64
2022/02/10 20:43:26;;;;;;;;;;;;;;;22.39;48.26;101322.75;5086186;28;4140;-64
2022/02/10 20:45:57;;;;;;;;;;;;;;;22.43;48.04;101327.97;5083772;28;4217;-65
2022/02/10 20:48:25;;;;;;;;;;;;;;;22.41;48.16;101328.59;5076510;28;4179;-65
2022/02/10 20:50:56;;;;;;;;;;;;;;;22.43;47.95;101334.47;5082322;28;4257;-64
2022/02/10 20:53:24;;;;;;;;;;;;;;;22.43;48.14;101331.59;5079840;28;5163;-65
2022/02/10 20:55:52;;;;;;;;;;;;;;;22.42;47.86;101324.31;5078898;28;4038;-65
2022/02/10 20:58:20;;;;;;;;;;;;;;;22.42;48.11;101323.56;5076438;28;4200;-65
2022/02/10 21:00:49;;;;;;;;;;;;;;;22.40;48.07;101332.88;5078324;28;4221;-65
2022/02/10 21:03:16;;;;;;;;;;;;;;;22.40;48.08;101330.00;5080787;28;4148;-65
2022/02/10 21:05:44;;;;;;;;;;;;;;;22.41;48.10;101327.88;5081652;28;4665;-65
2022/02/10 21:08:16;;;;;;;;;;;;;;;22.41;48.13;101328.59;5084256;28;4210;-65
2022/02/10 21:10:43;;;;;;;;;;;;;;;22.40;47.67;101315.56;5081807;28;4562;-65
2022/02/10 21:13:11;;;;;;;;;;;;;;;22.41;48.07;101327.88;5079767;28;4803;-65
2022/02/10 21:15:44;;;;;;;;;;;;;;;22.41;47.87;101322.84;5081746;28;4242;-65
2022/02/10 21:18:12;;;;;;;;;;;;;;;22.40;47.81;101314.81;5077948;28;4111;-65
2022/02/10 21:20:38;;;;;;;;;;;;;;;22.40;47.98;101324.22;5079316;28;4204;-65
2022/02/10 21:25:53;;;;;;;;;;;;;;;22.38;47.92;101319.13;5077186;28;4540;-64
2022/02/10 21:28:41;;;;;;;;;;;;;;;22.38;47.81;101327.03;5080288;28;4233;-65
2022/02/10 21:31:08;;;;;;;;;;;;;;;22.37;48.08;101331.31;5081454;28;4292;-65
2022/02/10 21:38:54;;;;;;;;;;;;;;;22.37;47.75;101334.94;5074982;28;4291;-64
2022/02/10 21:42:02;;;;;;;;;;;;;;;22.37;47.94;101332.03;5082978;28;4130;-65
2022/02/10 21:55:32;;;;;;;;;;;;;;;22.31;47.96;101340.44;5067600;28;4112;-66
2022/02/10 22:01:22;;;;;;;;;;;;;;;22.30;47.72;101350.47;5080136;28;4189;-64
2022/02/10 22:04:21;;;;;;;;;;;;;;;22.30;47.74;101358.41;5078355;28;4161;-65
2022/02/10 22:09:31;;;;;;;;;;;;;;;22.28;47.85;101384.25;5078079;28;4290;-64
2022/02/10 22:16:17;;;;;;;;;;;;;;;22.27;47.72;101382.78;5080396;28;4355;-64
2022/02/10 22:20:12;;;;;;;;;;;;;;;22.24;47.62;101402.16;5077295;28;4996;-64
2022/02/10 22:22:50;;;;;;;;;;;;;;;22.24;47.58;101404.25;5082192;28;4147;-64
2022/02/10 22:25:16;;;;;;;;;;;;;;;22.24;47.72;101404.25;5072199;28;5406;-64
2022/02/10 22:27:47;;;;;;;;;;;;;;;22.24;47.75;101410.81;5071141;28;4119;-65
2022/02/10 22:30:27;;;;;;;;;;;;;;;22.24;47.44;101412.91;5077359;28;4260;-64
2022/02/10 22:33:07;;;;;;;;;;;;;;;22.25;47.72;101411.53;5076035;28;4052;-64
2022/02/10 22:35:33;;;;;;;;;;;;;;;22.25;47.72;101405.78;5066802;28;4179;-65
2022/02/10 22:38:00;;;;;;;;;;;;;;;22.25;47.52;101397.13;5068489;28;4148;-64
2022/02/10 22:40:52;;;;;;;;;;;;;;;22.24;47.67;101392.72;5043352;28;4236;-65
2022/02/10 22:43:18;;;;;;;;;;;;;;;22.24;47.42;101389.84;5062653;28;4142;-64
2022/02/10 22:45:45;;;;;;;;;;;;;;;22.22;47.53;101369.53;5077292;28;4065;-64
2022/02/10 22:48:11;;;;;;;;;;;;;;;22.21;47.56;101370.94;5074943;28;4188;-64
2022/02/10 22:50:38;;;;;;;;;;;;;;;22.22;47.68;101355.13;5071528;28;4188;-64
2022/02/10 22:53:04;;;;;;;;;;;;;;;22.21;47.64;101353.63;5079819;28;4036;-66
2022/02/10 22:55:31;;;;;;;;;;;;;;;22.21;47.43;101368.03;5079740;28;4040;-64
2022/02/10 22:57:57;;;;;;;;;;;;;;;22.18;47.54;101362.16;5080195;28;5179;-64
2022/02/10 23:00:46;;;;;;;;;;;;;;;22.18;47.57;101359.28;5063313;28;5377;-64
2022/02/10 23:03:14;;;;;;;;;;;;;;;22.17;47.55;101362.81;5080016;28;4128;-65
2022/02/10 23:05:40;;;;;;;;;;;;;;;22.17;47.57;101366.47;5078773;28;3981;-64
2022/02/10 23:08:07;;;;;;;;;;;;;;;22.13;47.64;101348.97;5081133;28;4240;-64
2022/02/10 23:10:43;;;;;;;;;;;;;;;22.18;47.58;101355.66;5077523;28;4156;-64
2022/02/10 23:13:10;;;;;;;;;;;;;;;22.18;47.45;101353.50;5073856;28;4194;-64
2022/02/10 23:15:38;;;;;;;;;;;;;;;22.18;47.52;101347.75;5076587;28;4310;-65
2022/02/10 23:18:07;;;;;;;;;;;;;;;22.20;47.63;101361.53;5080725;28;4278;-67
2022/02/10 23:20:33;;;;;;;;;;;;;;;22.18;47.42;101359.28;5080806;28;5216;-66
2022/02/10 23:23:00;;;;;;;;;;;;;;;22.18;47.59;101353.50;5079394;28;5719;-66
2022/02/10 23:25:27;;;;;;;;;;;;;;;22.18;47.80;101353.50;5058183;28;4083;-65
2022/02/10 23:27:53;;;;;;;;;;;;;;;22.18;47.63;101356.41;5080340;28;4301;-66
2022/02/10 23:30:23;;;;;;;;;;;;;;;22.18;47.60;101359.28;5079852;28;4194;-65
2022/02/10 23:32:51;;;;;;;;;;;;;;;22.17;47.64;101363.56;5065019;28;4259;-65
2022/02/10 23:36:18;;;;;;;;;;;;;;;22.15;47.71;101363.47;5079463;28;4214;-64
2022/02/10 23:38:18;;;;;;;;;;;;;;;22.16;47.64;101367.84;5085995;28;4257;-65
2022/02/10 23:41:37;;;;;;;;;;;;;;;22.16;47.71;101361.34;5082052;28;4191;-64
2022/02/10 23:43:49;;;;;;;;;;;;;;;22.15;47.57;101357.72;5084950;28;5467;-65
2022/02/10 23:46:16;;;;;;;;;;;;;;;22.16;47.56;101358.44;5086031;28;4389;-65
2022/02/10 23:48:43;;;;;;;;;;;;;;;22.15;47.71;101362.72;5084783;28;4138;-65
2022/02/10 23:51:09;;;;;;;;;;;;;;;22.16;47.58;101356.31;5083886;28;4510;-65
2022/02/10 23:53:36;;;;;;;;;;;;;;;22.16;47.53;101362.06;5083735;28;4118;-64
2022/02/10 23:56:05;;;;;;;;;;;;;;;22.16;47.52;101361.34;5086006;28;4199;-64
2022/02/10 23:58:46;;;;;;;;;;;;;;;22.15;47.72;101363.47;5087486;28;5158;-64
